This is the latest recevied weather packets stored in our database for station/object WT9M-8. If no packets are shown the sender has not sent any weather packets the latest 10 day(s).
| Time | Temp. | Humidity | Pressure | Rain* | Wind** | Luminosity | Snow |
|---|---|---|---|---|---|---|---|
| 1777585219 | 14.44° C | 46% | 1012.8 hPa | 0 mm | - | 128 W/m² | - |
| 1777584634 | 15° C | 45% | 1012.8 hPa | 0 mm | - | 123 W/m² | - |
| 1777584029 | 15° C | 47% | 1012.9 hPa | 0 mm | - | 199 W/m² | - |
| 1777582821 | 13.89° C | 46% | 1012.9 hPa | 0 mm | - | 105 W/m² | - |
| 1777579231 | 17.22° C | 43% | 1013.6 hPa | 0 mm | - | 110 W/m² | - |
| 1777577418 | 17.22° C | 46% | 1013.6 hPa | 0 mm | - | 289 W/m² | - |
| 1777576833 | 16.11° C | 49% | 1013.7 hPa | 0 mm | - | 552 W/m² | - |
| 1777576248 | 16.11° C | 49% | 1013.8 hPa | 0 mm | - | 191 W/m² | - |
| 1777572038 | 14.44° C | 51% | 1014.4 hPa | 0 mm | - | 273 W/m² | - |
| 1777569620 | 15° C | 54% | 1014.6 hPa | 0 mm | - | 211 W/m² | - |
| 1777566054 | 13.89° C | 61% | 1014.9 hPa | 0 mm | - | 465 W/m² | - |
| 1777565429 | 12.78° C | 62% | 1015.1 hPa | 0 mm | - | 317 W/m² | - |
| 1777561217 | 10.56° C | 72% | 1015.4 hPa | 0 mm | - | 196 W/m² | - |
| 1777557024 | 7.22° C | 83% | 1015.4 hPa | 0 mm | - | 126 W/m² | - |
| 1777555855 | 7.22° C | 85% | 1015.6 hPa | 0 mm | - | 108 W/m² | - |
| 1777551017 | 0.56° C | 87% | 1016 hPa | 0 mm | - | 34 W/m² | - |
| 1777549828 | 0° C | 87% | 1016.2 hPa | 0 mm | - | 22 W/m² | - |
| 1777546826 | -1.67° C | 86% | 1016 hPa | 0 mm | - | 0 W/m² | - |
| 1777545616 | -1.67° C | 86% | 1016.1 hPa | 0 mm | - | 0 W/m² | - |
| 1777545032 | -1.67° C | 86% | 1016.1 hPa | 0 mm | - | 0 W/m² | - |
| 1777530018 | -0.56° C | 82% | 1016.4 hPa | 0 mm | - | 0 W/m² | - |
| 1777529434 | -0.56° C | 82% | 1016.5 hPa | 0 mm | - | 0 W/m² | - |
| 1777528831 | -0.56° C | 82% | 1016.5 hPa | 0 mm | - | 0 W/m² | - |
| 1777513233 | 5° C | 68% | 1015.6 hPa | 0 mm | - | 0 W/m² | - |
| 1777509630 | 10° C | 48% | 1015.2 hPa | 0 mm | - | 6 W/m² | - |
* Rain latest hour (hover to see other rain measurements)
** Current wind speed in m/s (hover to see current wind gust speed)